createdAt,value
2022-11-27T00:00:11.225Z,1.59
2022-11-27T00:02:12.964Z,1.74
2022-11-27T00:04:15.148Z,1.75
2022-11-27T00:06:24.796Z,1.63
2022-11-27T00:08:26.586Z,1.61
2022-11-27T00:10:28.558Z,1.62
2022-11-27T00:12:31.491Z,1.74
2022-11-27T00:14:33.182Z,1.81
2022-11-27T00:16:35.312Z,1.86
2022-11-27T00:18:37.489Z,1.67
2022-11-27T00:20:39.387Z,1.69
2022-11-27T00:22:41.468Z,1.83
2022-11-27T00:24:44.291Z,1.96
2022-11-27T00:26:46.025Z,1.94
2022-11-27T00:28:48.451Z,1.88
2022-11-27T00:30:50.202Z,1.93
2022-11-27T00:32:51.940Z,1.89
2022-11-27T00:34:54.382Z,1.82
2022-11-27T00:36:56.088Z,1.90
2022-11-27T00:38:57.808Z,1.71
2022-11-27T00:41:05.790Z,1.78
2022-11-27T00:43:07.513Z,1.71
2022-11-27T00:45:09.961Z,1.60
2022-11-27T00:47:12.074Z,1.83
2022-11-27T00:49:15.127Z,1.97
2022-11-27T00:51:19.903Z,1.97
2022-11-27T00:53:21.971Z,1.96
2022-11-27T00:55:23.680Z,1.95
2022-11-27T00:57:25.371Z,1.96
2022-11-27T00:59:27.542Z,2.02
2022-11-27T01:01:35.147Z,1.99
2022-11-27T01:03:36.892Z,1.96
2022-11-27T01:05:39.049Z,2.03
2022-11-27T01:07:40.782Z,1.97
2022-11-27T01:09:42.517Z,1.96
2022-11-27T01:11:44.644Z,1.89
2022-11-27T01:13:47.016Z,1.69
2022-11-27T01:16:01.806Z,1.72
2022-11-27T01:18:03.887Z,1.59
2022-11-27T01:20:06.201Z,2.00
2022-11-27T01:22:07.950Z,1.77
2022-11-27T01:24:12.175Z,1.62
2022-11-27T01:26:14.968Z,1.77
2022-11-27T01:28:17.397Z,1.73
2022-11-27T01:30:19.329Z,1.64
2022-11-27T01:32:21.070Z,1.82
2022-11-27T01:34:22.754Z,1.90
2022-11-27T01:36:25.194Z,1.88
2022-11-27T01:38:27.962Z,1.87
2022-11-27T01:40:29.706Z,1.89
2022-11-27T01:42:31.486Z,1.91
2022-11-27T01:44:33.158Z,2.03
2022-11-27T01:46:44.057Z,1.99
2022-11-27T01:48:47.612Z,2.07
2022-11-27T01:50:49.335Z,2.08
2022-11-27T01:52:55.886Z,2.05
2022-11-27T01:55:27.974Z,2.13
2022-11-27T01:57:36.672Z,2.20
2022-11-27T01:59:38.570Z,2.22
2022-11-27T02:01:40.494Z,2.18
2022-11-27T02:03:42.464Z,2.12
2022-11-27T02:05:44.344Z,2.12
2022-11-27T02:07:47.794Z,2.14
2022-11-27T02:09:49.661Z,2.01
2022-11-27T02:12:12.952Z,2.05
2022-11-27T02:14:32.794Z,2.24
2022-11-27T02:16:43.342Z,2.19
2022-11-27T02:18:58.766Z,2.12
2022-11-27T02:21:29.539Z,2.27
2022-11-27T02:23:37.292Z,2.24
2022-11-27T02:26:03.414Z,2.29
2022-11-27T02:28:17.255Z,2.31
2022-11-27T02:30:19.686Z,2.31
2022-11-27T02:32:42.294Z,2.22
2022-11-27T02:34:57.003Z,2.23
2022-11-27T02:37:19.621Z,2.30
2022-11-27T02:39:32.214Z,2.23
2022-11-27T02:41:41.829Z,2.35
2022-11-27T02:43:48.362Z,2.25
2022-11-27T02:45:52.389Z,2.29
2022-11-27T02:47:56.856Z,2.37
2022-11-27T02:50:00.298Z,2.45
2022-11-27T02:52:03.556Z,2.44
2022-11-27T02:54:10.023Z,2.42
2022-11-27T02:56:16.151Z,2.36
2022-11-27T02:58:22.299Z,2.47
2022-11-27T03:00:24.590Z,2.52
2022-11-27T03:02:41.447Z,2.49
2022-11-27T03:04:52.697Z,2.41
2022-11-27T03:06:57.857Z,2.47
2022-11-27T03:09:10.589Z,2.54
2022-11-27T03:11:15.344Z,2.53
2022-11-27T03:13:17.364Z,2.54
2022-11-27T03:15:20.125Z,2.56
2022-11-27T03:17:28.016Z,2.53
2022-11-27T03:19:41.747Z,2.44
2022-11-27T03:21:53.491Z,2.51
2022-11-27T03:23:55.311Z,2.46
2022-11-27T03:25:57.199Z,2.38
2022-11-27T03:28:02.678Z,2.47
2022-11-27T03:30:07.570Z,2.48
2022-11-27T03:32:09.928Z,2.17
2022-11-27T03:34:12.016Z,2.44
2022-11-27T03:36:15.522Z,2.48
2022-11-27T03:38:17.423Z,2.51
2022-11-27T03:40:19.740Z,2.47
2022-11-27T03:42:42.584Z,2.41
2022-11-27T03:44:53.666Z,2.38
2022-11-27T03:47:07.038Z,2.40
2022-11-27T03:49:28.630Z,2.29
2022-11-27T03:52:08.129Z,2.39
2022-11-27T03:54:27.602Z,2.42
2022-11-27T03:56:48.092Z,2.25
2022-11-27T03:58:56.342Z,2.17
2022-11-27T04:01:00.579Z,2.24
2022-11-27T04:03:03.809Z,2.25
2022-11-27T04:05:06.004Z,2.33
2022-11-27T04:07:07.844Z,2.29
2022-11-27T04:09:09.635Z,2.14
2022-11-27T04:11:11.497Z,2.09
2022-11-27T04:13:13.652Z,2.11
2022-11-27T04:15:15.419Z,2.01
2022-11-27T04:17:17.323Z,2.12
2022-11-27T04:19:19.069Z,2.14
2022-11-27T04:21:21.047Z,2.16
2022-11-27T04:23:22.967Z,2.01
2022-11-27T04:25:24.948Z,1.96
2022-11-27T04:27:26.688Z,2.05
2022-11-27T04:29:28.536Z,1.99
2022-11-27T04:31:30.246Z,1.93
2022-11-27T04:33:32.188Z,1.98
2022-11-27T04:35:33.969Z,2.04
2022-11-27T04:37:35.927Z,2.16
2022-11-27T04:39:38.016Z,2.23
2022-11-27T04:41:40.137Z,2.16
2022-11-27T04:43:41.873Z,2.30
2022-11-27T04:45:43.780Z,2.19
2022-11-27T04:47:45.812Z,2.32
2022-11-27T04:49:47.564Z,2.35
2022-11-27T04:51:49.440Z,2.29
2022-11-27T04:53:51.293Z,2.38
2022-11-27T04:55:53.017Z,2.44
2022-11-27T04:57:55.037Z,2.45
2022-11-27T04:59:56.875Z,2.43
2022-11-27T05:01:58.857Z,2.27
2022-11-27T05:04:00.798Z,2.26
2022-11-27T05:06:02.703Z,2.20
2022-11-27T05:08:04.670Z,2.37
2022-11-27T05:10:07.201Z,2.33
2022-11-27T05:12:09.346Z,2.37
2022-11-27T05:14:11.104Z,2.28
2022-11-27T05:16:13.124Z,2.36
2022-11-27T05:18:14.853Z,2.38
2022-11-27T05:20:16.677Z,2.46
2022-11-27T05:22:18.814Z,2.51
2022-11-27T05:24:22.791Z,2.53
2022-11-27T05:26:24.484Z,2.46
2022-11-27T05:28:27.211Z,2.33
2022-11-27T05:30:29.260Z,2.33
2022-11-27T05:32:31.529Z,2.25
2022-11-27T05:34:33.557Z,2.19
2022-11-27T05:36:36.252Z,2.26
2022-11-27T05:38:37.951Z,2.08
2022-11-27T05:40:40.034Z,2.03
2022-11-27T05:42:41.782Z,2.03
2022-11-27T05:44:43.581Z,2.12
2022-11-27T05:46:45.413Z,2.14
2022-11-27T05:48:48.144Z,2.12
2022-11-27T05:50:49.880Z,2.13
2022-11-27T05:52:51.687Z,2.11
2022-11-27T05:54:53.375Z,2.09
2022-11-27T05:56:55.082Z,2.17
2022-11-27T05:58:56.906Z,2.27
2022-11-27T06:00:58.704Z,2.31
2022-11-27T06:03:00.534Z,2.28
2022-11-27T06:05:02.458Z,2.15
2022-11-27T06:07:04.260Z,2.18
2022-11-27T06:09:12.229Z,2.23
2022-11-27T06:11:21.059Z,2.15
2022-11-27T06:13:22.781Z,1.88
2022-11-27T06:15:24.965Z,1.96
2022-11-27T06:17:26.704Z,2.05
2022-11-27T06:19:28.656Z,2.06
2022-11-27T06:21:30.395Z,1.99
2022-11-27T06:23:32.090Z,2.16
2022-11-27T06:25:34.065Z,2.26
2022-11-27T06:27:36.399Z,2.00
2022-11-27T06:29:38.620Z,2.14
2022-11-27T06:31:40.963Z,2.18
2022-11-27T06:33:42.759Z,2.24
2022-11-27T06:35:44.554Z,2.20
2022-11-27T06:37:46.245Z,2.02
2022-11-27T06:39:50.855Z,2.06
2022-11-27T06:41:52.598Z,2.04
2022-11-27T06:43:56.162Z,1.96
2022-11-27T06:45:59.091Z,2.02
2022-11-27T06:48:01.096Z,1.95
2022-11-27T06:50:03.451Z,1.99
2022-11-27T06:52:05.352Z,2.08
2022-11-27T06:54:07.332Z,2.16
2022-11-27T06:56:17.770Z,2.07
2022-11-27T06:58:19.990Z,1.90
2022-11-27T07:00:21.841Z,1.91
2022-11-27T07:02:23.813Z,2.14
2022-11-27T07:04:25.604Z,2.35
2022-11-27T07:06:28.068Z,2.41
2022-11-27T07:08:30.757Z,2.32
2022-11-27T07:10:36.487Z,2.36
2022-11-27T07:12:38.362Z,2.44
2022-11-27T07:14:40.446Z,2.53
2022-11-27T07:16:42.414Z,2.36
2022-11-27T07:18:47.055Z,2.27
2022-11-27T07:20:56.455Z,2.33
2022-11-27T07:22:58.661Z,2.22
2022-11-27T07:25:00.566Z,2.15
2022-11-27T07:27:02.496Z,2.11
2022-11-27T07:29:04.214Z,2.37
2022-11-27T07:31:06.719Z,2.49
2022-11-27T07:33:08.643Z,2.36
2022-11-27T07:35:10.359Z,2.65
2022-11-27T07:37:12.198Z,2.46
2022-11-27T07:39:17.566Z,2.47
2022-11-27T07:41:26.058Z,2.50
2022-11-27T07:43:32.830Z,2.55
2022-11-27T07:45:34.695Z,2.76
2022-11-27T07:47:37.002Z,2.86
2022-11-27T07:49:38.829Z,2.90
2022-11-27T07:51:40.673Z,2.98
2022-11-27T07:53:42.659Z,2.95
2022-11-27T07:55:44.454Z,2.90
2022-11-27T07:57:46.482Z,3.00
2022-11-27T07:59:48.353Z,3.03
2022-11-27T08:01:50.093Z,3.10
2022-11-27T08:03:51.968Z,3.12
2022-11-27T08:05:53.708Z,2.98
2022-11-27T08:07:55.570Z,2.83
2022-11-27T08:09:57.770Z,2.82
2022-11-27T08:11:59.481Z,2.60
2022-11-27T08:14:07.292Z,2.98
2022-11-27T08:16:09.311Z,2.94
2022-11-27T08:18:11.087Z,2.92
2022-11-27T08:20:12.981Z,3.00
2022-11-27T08:22:16.731Z,2.88
2022-11-27T08:24:18.432Z,2.90
2022-11-27T08:26:20.304Z,2.97
2022-11-27T08:28:22.149Z,2.99
2022-11-27T08:30:24.302Z,3.20
2022-11-27T08:32:26.111Z,3.34
2022-11-27T08:34:27.962Z,3.41
2022-11-27T08:36:30.005Z,3.24
2022-11-27T08:38:32.233Z,3.41
2022-11-27T08:40:33.988Z,3.62
2022-11-27T08:42:35.898Z,3.62
2022-11-27T08:44:37.934Z,3.68
2022-11-27T08:46:40.145Z,3.58
2022-11-27T08:48:41.896Z,3.55
2022-11-27T08:50:43.825Z,3.34
2022-11-27T08:52:45.843Z,3.55
2022-11-27T08:54:47.689Z,3.44
2022-11-27T08:56:51.715Z,3.52
2022-11-27T08:58:53.787Z,3.54
2022-11-27T09:00:55.547Z,3.72
2022-11-27T09:02:59.158Z,3.58
2022-11-27T09:05:00.870Z,3.69
2022-11-27T09:07:02.566Z,3.61
2022-11-27T09:09:05.733Z,3.77
2022-11-27T09:11:09.396Z,3.58
2022-11-27T09:13:11.202Z,3.42
2022-11-27T09:15:13.558Z,3.52
2022-11-27T09:17:15.378Z,3.73
2022-11-27T09:19:17.077Z,3.63
2022-11-27T09:21:21.650Z,3.54
2022-11-27T09:23:23.538Z,3.61
2022-11-27T09:25:25.261Z,3.82
2022-11-27T09:27:27.225Z,3.91
2022-11-27T09:29:29.168Z,3.65
2022-11-27T09:31:31.041Z,3.58
2022-11-27T09:33:35.162Z,3.44
2022-11-27T09:35:40.638Z,3.19
2022-11-27T09:37:42.459Z,3.15
2022-11-27T09:39:44.193Z,3.06
2022-11-27T09:41:45.848Z,3.17
2022-11-27T09:43:55.454Z,3.25
2022-11-27T09:46:03.747Z,3.12
2022-11-27T09:48:12.102Z,3.12
2022-11-27T09:50:24.933Z,3.40
2022-11-27T09:52:39.855Z,3.68
2022-11-27T09:54:52.607Z,3.61
2022-11-27T09:56:56.594Z,3.34
2022-11-27T09:59:00.715Z,3.35
2022-11-27T10:01:26.187Z,3.62
2022-11-27T10:03:32.787Z,3.61
2022-11-27T10:06:02.426Z,3.44
2022-11-27T10:08:07.495Z,3.73
2022-11-27T10:10:21.422Z,3.98
2022-11-27T10:12:26.215Z,4.05
2022-11-27T10:14:34.167Z,3.91
2022-11-27T10:16:46.091Z,3.76
2022-11-27T10:18:55.159Z,3.83
2022-11-27T10:21:07.810Z,3.80
2022-11-27T10:23:51.167Z,3.71
2022-11-27T10:26:01.312Z,3.83
2022-11-27T10:28:18.976Z,3.59
2022-11-27T10:30:21.779Z,3.44
2022-11-27T10:35:02.104Z,3.58
2022-11-27T10:37:14.022Z,3.61
2022-11-27T10:39:36.599Z,3.75
2022-11-27T10:41:49.781Z,3.74
2022-11-27T10:43:57.215Z,3.59
2022-11-27T10:46:15.993Z,3.57
2022-11-27T10:48:18.802Z,3.62
2022-11-27T10:50:24.312Z,3.21
2022-11-27T10:52:26.635Z,3.42
2022-11-27T10:54:34.816Z,3.37
2022-11-27T10:57:10.433Z,3.48
2022-11-27T10:59:19.445Z,3.69
2022-11-27T11:01:22.670Z,3.77
2022-11-27T11:03:24.444Z,3.80
2022-11-27T11:05:51.058Z,3.72
2022-11-27T11:08:14.640Z,3.68
2022-11-27T11:10:32.815Z,3.47
2022-11-27T11:12:34.576Z,3.65
2022-11-27T11:14:37.021Z,3.73
2022-11-27T11:16:43.545Z,3.72
2022-11-27T11:18:48.656Z,3.94
2022-11-27T11:20:53.679Z,4.01
2022-11-27T11:22:55.670Z,4.10
2022-11-27T11:24:57.641Z,4.22
2022-11-27T11:27:04.816Z,3.94
2022-11-27T11:29:39.362Z,4.17
2022-11-27T11:31:41.715Z,4.13
2022-11-27T11:34:02.241Z,4.29
2022-11-27T11:36:11.567Z,4.30
2022-11-27T11:38:18.545Z,4.35
2022-11-27T11:40:25.892Z,3.94
2022-11-27T11:42:32.463Z,4.16
2022-11-27T11:44:39.027Z,4.13
2022-11-27T11:46:41.061Z,4.09
2022-11-27T11:49:15.253Z,4.34
2022-11-27T11:51:35.618Z,4.29
2022-11-27T11:53:39.985Z,4.26
2022-11-27T11:55:44.659Z,4.21
2022-11-27T11:58:07.904Z,4.22
2022-11-27T12:00:25.094Z,4.01
2022-11-27T12:02:35.508Z,4.08
2022-11-27T12:05:04.957Z,4.10
2022-11-27T12:07:48.930Z,4.28
2022-11-27T12:10:28.902Z,4.16
2022-11-27T12:13:05.824Z,4.42
2022-11-27T12:15:32.223Z,4.52
2022-11-27T12:17:45.258Z,4.58
2022-11-27T12:20:14.288Z,4.67
2022-11-27T12:22:37.978Z,4.65
2022-11-27T12:24:45.430Z,4.91
2022-11-27T12:27:04.150Z,4.96
2022-11-27T12:29:47.447Z,4.85
2022-11-27T12:32:11.963Z,5.00
2022-11-27T12:34:41.921Z,5.22
2022-11-27T12:36:47.071Z,5.31
2022-11-27T12:39:09.605Z,5.33
2022-11-27T12:41:31.013Z,5.43
2022-11-27T12:43:38.527Z,5.62
2022-11-27T12:45:50.993Z,5.33
2022-11-27T12:48:02.905Z,5.50
2022-11-27T12:50:16.254Z,5.02
2022-11-27T12:52:25.734Z,4.90
2022-11-27T12:54:37.488Z,4.89
2022-11-27T12:56:44.982Z,4.74
2022-11-27T12:58:52.485Z,4.88
2022-11-27T13:01:03.305Z,4.91
2022-11-27T13:03:23.165Z,5.18
2022-11-27T13:05:28.692Z,5.38
2022-11-27T13:07:45.584Z,5.38
2022-11-27T13:10:10.247Z,5.25
2022-11-27T13:12:20.721Z,5.05
2022-11-27T13:14:26.694Z,4.87
2022-11-27T13:16:38.427Z,4.97
2022-11-27T13:18:45.625Z,4.87
2022-11-27T13:20:52.389Z,5.35
2022-11-27T13:22:54.421Z,5.22
2022-11-27T13:24:56.688Z,4.89
2022-11-27T13:27:07.645Z,5.01
2022-11-27T13:29:31.119Z,4.79
2022-11-27T13:31:36.764Z,4.98
2022-11-27T13:33:44.448Z,5.16
2022-11-27T13:35:46.345Z,5.31
2022-11-27T13:37:55.802Z,5.37
2022-11-27T13:40:20.703Z,5.28
2022-11-27T13:42:22.686Z,5.28
2022-11-27T13:44:29.394Z,5.36
2022-11-27T13:46:43.136Z,5.46
2022-11-27T13:48:52.744Z,5.39
2022-11-27T13:50:54.955Z,5.42
2022-11-27T13:53:02.840Z,5.52
2022-11-27T13:55:08.718Z,5.55
2022-11-27T13:57:16.872Z,5.55
2022-11-27T13:59:26.224Z,5.43
2022-11-27T14:01:28.091Z,5.41
2022-11-27T14:03:30.804Z,5.40
2022-11-27T14:05:50.705Z,5.31
2022-11-27T14:07:55.831Z,5.38
2022-11-27T14:10:09.095Z,5.36
2022-11-27T14:12:15.720Z,5.40
2022-11-27T14:14:21.687Z,5.38
2022-11-27T14:16:36.121Z,5.34
2022-11-27T14:18:38.025Z,5.40
2022-11-27T14:20:50.688Z,5.47
2022-11-27T14:23:12.903Z,5.48
2022-11-27T14:25:27.627Z,5.56
2022-11-27T14:27:35.244Z,5.49
2022-11-27T14:29:37.100Z,5.43
2022-11-27T14:31:38.860Z,5.39
2022-11-27T14:34:07.277Z,5.41
2022-11-27T14:36:22.783Z,5.19
2022-11-27T14:38:28.342Z,5.15
2022-11-27T14:40:30.064Z,5.26
2022-11-27T14:42:36.476Z,5.21
2022-11-27T14:44:40.750Z,5.23
2022-11-27T14:46:42.591Z,5.18
2022-11-27T14:48:50.680Z,5.25
2022-11-27T14:50:54.796Z,5.30
2022-11-27T14:52:58.504Z,5.29
2022-11-27T14:55:01.102Z,5.20
2022-11-27T14:57:03.957Z,5.15
2022-11-27T14:59:05.873Z,5.00
2022-11-27T15:01:08.613Z,4.94
2022-11-27T15:03:11.088Z,4.98
2022-11-27T15:05:26.396Z,4.93
2022-11-27T15:07:33.622Z,4.91
2022-11-27T15:09:37.227Z,5.03
2022-11-27T15:11:55.097Z,4.94
2022-11-27T15:14:00.777Z,4.90
2022-11-27T15:16:13.870Z,4.85
2022-11-27T15:18:21.866Z,4.87
2022-11-27T15:20:36.814Z,4.96
2022-11-27T15:22:38.815Z,4.92
2022-11-27T15:24:40.524Z,4.95
2022-11-27T15:26:42.259Z,4.94
2022-11-27T15:28:50.963Z,4.94
2022-11-27T15:30:53.160Z,4.86
2022-11-27T15:32:55.003Z,4.84
2022-11-27T15:34:56.702Z,4.90
2022-11-27T15:37:01.352Z,4.97
2022-11-27T15:39:17.908Z,4.89
2022-11-27T15:41:22.031Z,4.86
2022-11-27T15:43:23.877Z,5.01
2022-11-27T15:45:32.506Z,4.86
2022-11-27T15:47:37.391Z,4.88
2022-11-27T15:49:39.312Z,4.88
2022-11-27T15:51:42.479Z,4.88
2022-11-27T15:53:44.599Z,4.91
2022-11-27T15:55:46.474Z,4.93
2022-11-27T15:57:48.500Z,5.01
2022-11-27T15:59:50.221Z,5.00
2022-11-27T16:01:51.994Z,5.05
2022-11-27T16:03:53.814Z,5.10
2022-11-27T16:05:55.500Z,5.13
2022-11-27T16:07:57.925Z,5.14
2022-11-27T16:10:00.244Z,5.08
2022-11-27T16:12:02.966Z,5.08
2022-11-27T16:14:04.877Z,4.99
2022-11-27T16:16:08.733Z,4.92
2022-11-27T16:18:10.579Z,4.96
2022-11-27T16:20:13.112Z,4.92
2022-11-27T16:22:14.998Z,4.97
2022-11-27T16:24:16.697Z,5.00
2022-11-27T16:26:18.629Z,5.02
2022-11-27T16:28:20.422Z,5.06
2022-11-27T16:30:22.115Z,4.99
2022-11-27T16:32:23.940Z,4.95
2022-11-27T16:34:25.801Z,4.95
2022-11-27T16:36:28.402Z,4.93
2022-11-27T16:38:30.167Z,4.79
2022-11-27T16:40:31.882Z,4.75
2022-11-27T16:42:33.593Z,4.72
2022-11-27T16:44:35.447Z,4.75
2022-11-27T16:46:37.299Z,4.65
2022-11-27T16:48:40.817Z,4.62
2022-11-27T16:50:42.588Z,4.64
2022-11-27T16:52:44.803Z,4.70
2022-11-27T16:54:46.889Z,4.74
2022-11-27T16:56:48.874Z,4.62
2022-11-27T16:58:51.570Z,4.46
2022-11-27T17:00:53.350Z,4.56
2022-11-27T17:02:57.379Z,4.65
2022-11-27T17:04:59.322Z,4.68
2022-11-27T17:07:01.326Z,4.74
2022-11-27T17:09:05.790Z,4.76
2022-11-27T17:11:15.532Z,4.73
2022-11-27T17:13:17.284Z,4.71
2022-11-27T17:15:18.950Z,4.54
2022-11-27T17:17:20.798Z,4.22
2022-11-27T17:19:22.948Z,4.12
2022-11-27T17:21:31.667Z,4.17
2022-11-27T17:23:33.794Z,4.26
2022-11-27T17:25:35.539Z,4.33
2022-11-27T17:27:37.307Z,4.27
2022-11-27T17:29:39.538Z,4.21
2022-11-27T17:31:41.638Z,4.27
2022-11-27T17:33:44.109Z,4.31
2022-11-27T17:35:45.913Z,4.32
2022-11-27T17:37:47.662Z,4.37
2022-11-27T17:39:49.562Z,4.46
2022-11-27T17:41:51.817Z,4.46
2022-11-27T17:43:53.659Z,4.47
2022-11-27T17:45:55.516Z,4.47
2022-11-27T17:47:57.570Z,4.50
2022-11-27T17:49:59.366Z,4.49
2022-11-27T17:52:06.218Z,4.41
2022-11-27T17:54:08.537Z,4.46
2022-11-27T17:56:12.361Z,4.40
2022-11-27T17:58:14.065Z,4.32
2022-11-27T18:00:16.050Z,4.20
2022-11-27T18:02:17.999Z,4.22
2022-11-27T18:04:20.270Z,4.25
2022-11-27T18:06:22.533Z,4.25
2022-11-27T18:08:24.363Z,4.22
2022-11-27T18:10:26.198Z,4.09
2022-11-27T18:12:28.046Z,4.11
2022-11-27T18:14:29.989Z,4.15
2022-11-27T18:16:34.460Z,4.22
2022-11-27T18:18:36.763Z,4.21
2022-11-27T18:20:38.648Z,4.21
2022-11-27T18:22:40.451Z,4.14
2022-11-27T18:24:42.407Z,3.93
2022-11-27T18:29:06.212Z,3.98
2022-11-27T18:31:14.153Z,3.89
2022-11-27T18:33:15.927Z,3.85
2022-11-27T18:35:17.915Z,3.90
2022-11-27T18:37:20.091Z,3.98
2022-11-27T18:39:21.880Z,4.10
2022-11-27T18:41:25.693Z,4.03
2022-11-27T18:43:27.427Z,4.26
2022-11-27T18:45:33.320Z,4.29
2022-11-27T18:47:36.089Z,4.14
2022-11-27T18:49:38.787Z,4.17
2022-11-27T18:51:40.694Z,4.25
2022-11-27T18:53:43.016Z,4.34
2022-11-27T18:55:46.828Z,4.35
2022-11-27T18:57:52.093Z,4.37
2022-11-27T18:59:53.876Z,4.31
2022-11-27T19:01:55.675Z,4.26
2022-11-27T19:03:59.516Z,4.14
2022-11-27T19:06:01.702Z,4.04
2022-11-27T19:08:03.404Z,3.95
2022-11-27T19:10:05.724Z,4.02
2022-11-27T19:12:07.621Z,3.92
2022-11-27T19:14:09.425Z,3.77
2022-11-27T19:16:27.057Z,3.78
2022-11-27T19:18:29.036Z,3.83
2022-11-27T19:20:30.734Z,3.89
2022-11-27T19:22:32.672Z,3.97
2022-11-27T19:24:34.709Z,3.87
2022-11-27T19:26:36.744Z,3.86
2022-11-27T19:28:39.151Z,3.80
2022-11-27T19:30:43.095Z,3.83
2022-11-27T19:32:44.801Z,3.86
2022-11-27T19:34:48.894Z,3.88
2022-11-27T19:36:50.747Z,3.69
2022-11-27T19:39:06.767Z,3.68
2022-11-27T19:41:11.112Z,3.64
2022-11-27T19:43:12.936Z,3.66
2022-11-27T19:45:14.756Z,3.70
2022-11-27T19:47:16.705Z,3.77
2022-11-27T19:49:18.816Z,3.82
2022-11-27T19:51:20.505Z,3.88
2022-11-27T19:53:22.219Z,3.85
2022-11-27T19:55:23.932Z,3.85
2022-11-27T19:57:25.604Z,3.89
2022-11-27T19:59:27.474Z,3.93
2022-11-27T20:01:29.876Z,3.98
2022-11-27T20:03:31.614Z,3.99
2022-11-27T20:05:33.314Z,4.02
2022-11-27T20:07:35.390Z,4.05
2022-11-27T20:09:37.208Z,4.06
2022-11-27T20:11:38.989Z,4.06
2022-11-27T20:13:41.624Z,4.03
2022-11-27T20:15:43.318Z,4.00
2022-11-27T20:17:45.185Z,3.98
2022-11-27T20:19:46.962Z,3.70
2022-11-27T20:21:48.878Z,3.89
2022-11-27T20:23:52.291Z,3.98
2022-11-27T20:25:54.082Z,3.92
2022-11-27T20:27:55.812Z,3.91
2022-11-27T20:29:57.642Z,3.93
2022-11-27T20:31:59.576Z,3.94
2022-11-27T20:34:04.917Z,3.93
2022-11-27T20:36:14.984Z,3.93
2022-11-27T20:38:16.837Z,3.92
2022-11-27T20:40:18.580Z,3.99
2022-11-27T20:42:20.609Z,4.00
2022-11-27T20:44:22.844Z,3.97
2022-11-27T20:46:25.422Z,3.97
2022-11-27T20:48:27.639Z,3.89
2022-11-27T20:50:29.480Z,3.78
2022-11-27T20:52:31.179Z,3.78
2022-11-27T20:54:32.957Z,3.84
2022-11-27T20:56:35.352Z,3.83
2022-11-27T20:58:39.745Z,3.83
2022-11-27T21:00:41.691Z,3.83
2022-11-27T21:02:44.038Z,3.81
2022-11-27T21:04:45.804Z,3.81
2022-11-27T21:06:47.768Z,3.75
2022-11-27T21:08:49.998Z,3.74
2022-11-27T21:10:51.687Z,3.74
2022-11-27T21:12:53.634Z,3.72
2022-11-27T21:14:55.550Z,3.75
2022-11-27T21:17:02.996Z,3.76
2022-11-27T21:19:08.264Z,3.71
2022-11-27T21:21:13.614Z,3.66
2022-11-27T21:23:16.673Z,3.67
2022-11-27T21:25:22.612Z,3.59
2022-11-27T21:27:28.968Z,3.52
2022-11-27T21:29:30.774Z,3.41
2022-11-27T21:31:37.326Z,3.35
2022-11-27T21:33:39.584Z,3.35
2022-11-27T21:35:41.284Z,3.42
2022-11-27T21:37:43.131Z,3.49
2022-11-27T21:39:45.010Z,3.49
2022-11-27T21:41:52.394Z,3.53
2022-11-27T21:43:56.602Z,3.60
2022-11-27T21:45:59.175Z,3.63
2022-11-27T21:48:00.941Z,3.64
2022-11-27T21:50:02.782Z,3.64
2022-11-27T21:52:05.042Z,3.68
2022-11-27T21:54:08.803Z,3.67
2022-11-27T21:56:13.230Z,3.71
2022-11-27T21:58:15.049Z,3.73
2022-11-27T22:00:17.638Z,3.74
2022-11-27T22:02:19.427Z,3.73
2022-11-27T22:04:21.293Z,3.68
2022-11-27T22:06:26.007Z,3.65
2022-11-27T22:08:37.696Z,3.58
2022-11-27T22:10:40.486Z,3.35
2022-11-27T22:12:42.213Z,3.18
2022-11-27T22:14:43.991Z,3.11
2022-11-27T22:16:46.966Z,3.10
2022-11-27T22:18:49.489Z,3.15
2022-11-27T22:20:51.949Z,3.11
2022-11-27T22:22:53.806Z,3.11
2022-11-27T22:24:55.502Z,3.13
2022-11-27T22:26:57.239Z,3.21
2022-11-27T22:28:59.381Z,3.24
2022-11-27T22:31:01.199Z,3.29
2022-11-27T22:33:03.009Z,3.25
2022-11-27T22:35:05.227Z,3.32
2022-11-27T22:37:06.939Z,3.32
2022-11-27T22:39:09.254Z,3.16
2022-11-27T22:41:11.814Z,3.09
2022-11-27T22:43:13.507Z,3.25
2022-11-27T22:45:15.550Z,3.29
2022-11-27T22:47:17.224Z,3.33
2022-11-27T22:49:19.021Z,3.32
2022-11-27T22:51:21.851Z,3.11
2022-11-27T22:53:23.596Z,3.21
2022-11-27T22:55:25.288Z,3.30
2022-11-27T22:57:26.996Z,3.34
2022-11-27T22:59:33.846Z,3.28
2022-11-27T23:01:35.947Z,3.24
2022-11-27T23:03:37.718Z,3.14
2022-11-27T23:05:44.336Z,2.99
2022-11-27T23:07:46.154Z,3.16
2022-11-27T23:09:48.219Z,3.19
2022-11-27T23:11:50.238Z,3.26
2022-11-27T23:13:53.093Z,3.20
2022-11-27T23:15:54.946Z,3.09
2022-11-27T23:17:56.903Z,3.13
2022-11-27T23:19:58.630Z,3.08
2022-11-27T23:22:00.380Z,3.12
2022-11-27T23:24:07.640Z,3.18
2022-11-27T23:26:22.620Z,3.28
2022-11-27T23:28:24.361Z,3.31
2022-11-27T23:30:26.173Z,3.34
2022-11-27T23:32:27.895Z,3.31
2022-11-27T23:34:29.631Z,3.30
2022-11-27T23:36:32.656Z,3.35
2022-11-27T23:38:34.388Z,3.37
2022-11-27T23:40:36.193Z,3.34
2022-11-27T23:42:38.041Z,3.42
2022-11-27T23:44:40.056Z,3.26
2022-11-27T23:46:42.174Z,3.16
2022-11-27T23:48:44.706Z,3.20
2022-11-27T23:50:46.380Z,2.89
2022-11-27T23:52:48.104Z,3.05
2022-11-27T23:54:49.884Z,3.17
2022-11-27T23:56:52.113Z,3.23
2022-11-27T23:58:54.888Z,3.33
